createdAt,value
2022-10-21T00:01:28.158Z,32.08
2022-10-21T00:03:55.337Z,32.90
2022-10-21T00:06:22.501Z,32.97
2022-10-21T00:08:49.782Z,32.60
2022-10-21T00:11:16.945Z,32.45
2022-10-21T00:13:44.209Z,34.00
2022-10-21T00:16:12.857Z,33.78
2022-10-21T00:18:40.820Z,31.60
2022-10-21T00:21:08.934Z,33.08
2022-10-21T00:23:36.501Z,31.77
2022-10-21T00:26:04.209Z,30.58
2022-10-21T00:28:31.640Z,30.20
2022-10-21T00:30:59.265Z,31.02
2022-10-21T00:33:27.156Z,30.42
2022-10-21T00:35:55.319Z,31.67
2022-10-21T00:40:55.025Z,32.55
2022-10-21T00:43:22.341Z,31.52
2022-10-21T00:45:51.266Z,30.10
2022-10-21T00:48:21.424Z,30.92
2022-10-21T00:51:00.572Z,32.17
2022-10-21T00:53:28.279Z,31.00
2022-10-21T00:55:57.989Z,30.75
2022-10-21T00:58:26.201Z,34.53
2022-10-21T01:00:55.689Z,30.70
2022-10-21T01:03:24.326Z,31.23
2022-10-21T01:05:52.106Z,31.15
2022-10-21T01:08:19.618Z,32.90
2022-10-21T01:10:47.024Z,32.53
2022-10-21T01:13:32.658Z,31.63
2022-10-21T01:15:59.810Z,30.48
2022-10-21T01:18:40.658Z,30.98
2022-10-21T01:21:23.192Z,31.10
2022-10-21T01:24:08.948Z,31.38
2022-10-21T01:29:18.006Z,29.27
2022-10-21T01:31:53.889Z,30.02
2022-10-21T01:34:23.916Z,30.25
2022-10-21T01:36:54.129Z,30.83
2022-10-21T01:39:33.673Z,30.85
2022-10-21T01:44:55.520Z,29.88
2022-10-21T01:47:43.002Z,29.83
2022-10-21T01:50:15.517Z,31.65
2022-10-21T01:52:45.227Z,31.42
2022-10-21T01:55:15.233Z,32.20
2022-10-21T01:57:45.013Z,32.70
2022-10-21T02:00:12.528Z,30.38
2022-10-21T02:02:41.259Z,31.48
2022-10-21T02:05:28.861Z,32.08
2022-10-21T02:07:56.188Z,30.48
2022-10-21T02:10:23.909Z,30.85
2022-10-21T02:12:52.153Z,32.08
2022-10-21T02:15:20.849Z,32.60
2022-10-21T02:17:50.794Z,32.38
2022-10-21T02:20:18.849Z,32.08
2022-10-21T02:22:46.696Z,34.03
2022-10-21T02:25:18.418Z,31.88
2022-10-21T02:27:45.578Z,33.03
2022-10-21T02:30:12.985Z,34.95
2022-10-21T02:32:49.290Z,33.50
2022-10-21T02:35:16.536Z,31.50
2022-10-21T02:37:58.965Z,31.52
2022-10-21T02:40:31.941Z,31.45
2022-10-21T02:43:01.437Z,33.72
2022-10-21T02:45:28.713Z,31.60
2022-10-21T02:47:55.870Z,32.70
2022-10-21T02:50:23.082Z,34.17
2022-10-21T02:52:50.275Z,33.70
2022-10-21T02:55:17.509Z,33.72
2022-10-21T02:57:44.797Z,33.25
2022-10-21T03:00:12.395Z,33.13
2022-10-21T03:02:39.616Z,31.63
2022-10-21T03:05:07.029Z,31.95
2022-10-21T03:07:34.206Z,30.45
2022-10-21T03:10:01.385Z,29.52
2022-10-21T03:12:28.553Z,31.27
2022-10-21T03:14:55.805Z,29.90
2022-10-21T03:17:25.252Z,27.92
2022-10-21T03:19:52.703Z,30.58
2022-10-21T03:22:19.836Z,28.77
2022-10-21T03:24:46.985Z,27.90
2022-10-21T03:27:14.163Z,28.58
2022-10-21T03:29:41.333Z,29.25
2022-10-21T03:32:08.485Z,28.02
2022-10-21T03:34:35.612Z,29.10
2022-10-21T03:37:02.731Z,27.45
2022-10-21T03:39:30.079Z,27.33
2022-10-21T03:41:57.200Z,25.90
2022-10-21T03:44:24.358Z,26.52
2022-10-21T03:46:51.516Z,25.80
2022-10-21T03:49:21.437Z,24.75
2022-10-21T03:51:48.895Z,26.15
2022-10-21T03:54:16.413Z,26.15
2022-10-21T03:56:43.581Z,27.00
2022-10-21T03:59:10.795Z,24.77
2022-10-21T04:01:38.270Z,24.58
2022-10-21T04:04:05.610Z,25.35
2022-10-21T04:06:32.821Z,26.15
2022-10-21T04:09:00.150Z,25.90
2022-10-21T04:11:27.404Z,25.55
2022-10-21T04:13:54.565Z,25.58
2022-10-21T04:16:22.408Z,26.48
2022-10-21T04:18:49.552Z,25.35
2022-10-21T04:21:16.856Z,24.73
2022-10-21T04:23:44.091Z,24.80
2022-10-21T04:26:12.294Z,24.42
2022-10-21T04:28:39.545Z,25.10
2022-10-21T04:31:06.696Z,25.38
2022-10-21T04:33:33.833Z,25.95
2022-10-21T04:36:01.048Z,24.88
2022-10-21T04:38:28.287Z,24.85
2022-10-21T04:41:04.551Z,24.20
2022-10-21T04:43:31.701Z,24.38
2022-10-21T04:45:58.841Z,25.10
2022-10-21T04:48:26.036Z,25.73
2022-10-21T04:50:53.792Z,23.90
2022-10-21T04:53:21.340Z,23.55
2022-10-21T04:55:52.282Z,25.52
2022-10-21T04:58:21.907Z,25.23
2022-10-21T05:00:50.011Z,25.98
2022-10-21T05:03:17.319Z,25.30
2022-10-21T05:05:44.482Z,25.35
2022-10-21T05:08:11.934Z,24.42
2022-10-21T05:10:39.158Z,25.25
2022-10-21T05:13:06.452Z,25.27
2022-10-21T05:15:33.900Z,25.48
2022-10-21T05:18:01.069Z,26.00
2022-10-21T05:20:28.265Z,25.27
2022-10-21T05:22:55.434Z,26.15
2022-10-21T05:25:23.718Z,24.90
2022-10-21T05:27:51.194Z,25.50
2022-10-21T05:30:18.461Z,24.65
2022-10-21T05:32:45.586Z,24.55
2022-10-21T05:35:12.788Z,24.05
2022-10-21T05:37:39.968Z,22.90
2022-10-21T05:40:07.679Z,23.33
2022-10-21T05:42:34.976Z,24.70
2022-10-21T05:45:02.216Z,24.55
2022-10-21T05:47:29.354Z,24.52
2022-10-21T05:49:56.990Z,23.60
2022-10-21T05:52:24.174Z,22.40
2022-10-21T05:54:51.330Z,22.58
2022-10-21T05:57:18.644Z,23.50
2022-10-21T05:59:45.810Z,24.13
2022-10-21T06:02:12.975Z,24.85
2022-10-21T06:04:40.148Z,24.80
2022-10-21T06:07:07.367Z,20.90
2022-10-21T06:09:34.552Z,23.08
2022-10-21T06:12:01.767Z,24.00
2022-10-21T06:14:28.945Z,23.58
2022-10-21T06:16:56.139Z,26.40
2022-10-21T06:19:23.363Z,24.02
2022-10-21T06:21:50.681Z,26.20
2022-10-21T06:24:17.874Z,23.55
2022-10-21T06:26:45.473Z,27.25
2022-10-21T06:29:12.733Z,26.65
2022-10-21T06:31:39.923Z,25.65
2022-10-21T06:34:07.143Z,25.83
2022-10-21T06:36:34.375Z,25.67
2022-10-21T06:39:01.510Z,24.75
2022-10-21T06:41:28.691Z,26.83
2022-10-21T06:43:55.876Z,28.50
2022-10-21T06:46:23.278Z,23.98
2022-10-21T06:48:50.487Z,27.20
2022-10-21T06:51:19.477Z,26.83
2022-10-21T06:53:47.670Z,28.30
2022-10-21T06:56:19.299Z,26.70
2022-10-21T06:58:49.084Z,26.88
2022-10-21T07:01:33.689Z,23.30
2022-10-21T07:04:06.112Z,28.67
2022-10-21T07:09:06.363Z,29.05
2022-10-21T07:11:33.622Z,27.23
2022-10-21T07:14:01.866Z,27.52
2022-10-21T07:16:30.332Z,29.05
2022-10-21T07:18:57.531Z,30.17
2022-10-21T07:21:25.985Z,30.15
2022-10-21T07:23:55.444Z,30.98
2022-10-21T07:26:24.851Z,29.70
2022-10-21T07:28:52.462Z,30.55
2022-10-21T07:31:20.266Z,28.98
2022-10-21T07:33:47.455Z,29.88
2022-10-21T07:36:16.123Z,28.70
2022-10-21T07:38:46.649Z,27.88
2022-10-21T07:41:21.805Z,28.20
2022-10-21T07:43:49.086Z,26.77
2022-10-21T07:46:16.488Z,25.75
2022-10-21T07:48:43.767Z,26.17
2022-10-21T07:51:12.745Z,25.80
2022-10-21T07:53:39.994Z,25.88
2022-10-21T07:56:15.353Z,26.02
2022-10-21T08:01:09.950Z,24.92
2022-10-21T08:03:37.376Z,23.63
2022-10-21T08:06:05.009Z,25.13
2022-10-21T08:08:32.704Z,23.23
2022-10-21T08:10:59.894Z,22.88
2022-10-21T08:13:27.392Z,22.63
2022-10-21T08:15:56.900Z,22.35
2022-10-21T08:18:24.676Z,21.25
2022-10-21T08:20:51.816Z,20.90
2022-10-21T08:23:19.701Z,20.25
2022-10-21T08:25:47.885Z,18.55
2022-10-21T08:28:15.612Z,19.15
2022-10-21T08:30:43.474Z,18.13
2022-10-21T08:33:11.986Z,17.02
2022-10-21T08:35:39.808Z,17.10
2022-10-21T08:40:45.581Z,14.98
2022-10-21T08:43:20.775Z,14.15
2022-10-21T08:45:54.660Z,14.20
2022-10-21T08:48:42.121Z,14.60
2022-10-21T08:51:12.842Z,13.68
2022-10-21T08:53:41.957Z,13.18
2022-10-21T08:56:19.325Z,13.80
2022-10-21T08:58:48.649Z,13.63
2022-10-21T09:01:27.995Z,13.13
2022-10-21T09:04:02.575Z,12.75
2022-10-21T09:06:44.874Z,12.73
2022-10-21T09:09:33.419Z,13.25
2022-10-21T09:12:13.458Z,13.05
2022-10-21T09:14:43.436Z,13.18
2022-10-21T09:17:29.093Z,13.02
2022-10-21T09:19:56.257Z,11.73
2022-10-21T09:22:38.473Z,11.73
2022-10-21T09:25:22.617Z,11.27
2022-10-21T09:27:56.128Z,10.63
2022-10-21T09:30:24.719Z,12.63
2022-10-21T09:32:56.340Z,12.80
2022-10-21T09:35:27.889Z,12.30
2022-10-21T09:38:10.364Z,12.00
2022-10-21T09:40:37.548Z,11.35
2022-10-21T09:43:04.920Z,11.57
2022-10-21T09:45:36.446Z,11.43
2022-10-21T09:48:12.799Z,10.57
2022-10-21T09:50:40.113Z,9.27
2022-10-21T09:53:13.881Z,9.68
2022-10-21T09:55:41.720Z,8.40
2022-10-21T09:58:23.926Z,8.43
2022-10-21T10:00:51.301Z,7.72
2022-10-21T10:03:31.006Z,7.82
2022-10-21T10:05:58.557Z,8.45
2022-10-21T10:08:28.715Z,7.97
2022-10-21T10:11:11.904Z,7.25
2022-10-21T10:13:52.808Z,7.30
2022-10-21T10:16:22.896Z,8.15
2022-10-21T10:18:51.369Z,8.18
2022-10-21T10:21:19.858Z,7.93
2022-10-21T10:23:51.337Z,8.00
2022-10-21T10:26:29.628Z,7.45
2022-10-21T10:29:10.155Z,8.45
2022-10-21T10:31:37.985Z,7.90
2022-10-21T10:34:07.251Z,7.55
2022-10-21T10:36:38.541Z,7.95
2022-10-21T10:39:07.692Z,7.07
2022-10-21T10:41:37.037Z,7.70
2022-10-21T10:44:09.445Z,7.68
2022-10-21T10:46:37.537Z,8.02
2022-10-21T10:49:21.346Z,7.57
2022-10-21T10:51:49.691Z,7.35
2022-10-21T10:54:17.570Z,8.63
2022-10-21T10:56:44.691Z,7.50
2022-10-21T10:59:11.817Z,7.80
2022-10-21T11:01:43.236Z,7.30
2022-10-21T11:04:25.303Z,9.05
2022-10-21T11:06:54.339Z,8.10
2022-10-21T11:09:23.864Z,8.15
2022-10-21T11:11:56.487Z,8.73
2022-10-21T11:14:23.795Z,9.40
2022-10-21T11:17:01.312Z,7.88
2022-10-21T11:19:29.044Z,8.65
2022-10-21T11:22:02.607Z,7.90
2022-10-21T11:24:51.300Z,7.68
2022-10-21T11:27:30.381Z,7.40
2022-10-21T11:30:06.715Z,7.53
2022-10-21T11:32:46.367Z,8.85
2022-10-21T11:35:22.994Z,8.00
2022-10-21T11:37:50.122Z,7.90
2022-10-21T11:40:32.441Z,7.13
2022-10-21T11:43:11.678Z,7.93
2022-10-21T11:45:57.700Z,7.90
2022-10-21T11:48:30.903Z,7.68
2022-10-21T11:50:58.842Z,7.53
2022-10-21T11:53:47.362Z,7.38
2022-10-21T11:56:27.337Z,7.20
2022-10-21T11:59:06.576Z,7.43
2022-10-21T12:01:56.646Z,7.68
2022-10-21T12:04:44.844Z,7.72
2022-10-21T12:07:30.437Z,6.82
2022-10-21T12:10:02.834Z,6.93
2022-10-21T12:12:33.223Z,6.32
2022-10-21T12:15:04.596Z,7.10
2022-10-21T12:20:13.408Z,7.45
2022-10-21T12:22:41.011Z,6.35
2022-10-21T12:25:08.327Z,6.45
2022-10-21T12:27:41.840Z,7.15
2022-10-21T12:30:32.085Z,6.90
2022-10-21T12:33:08.501Z,7.25
2022-10-21T12:35:44.886Z,6.97
2022-10-21T12:38:30.787Z,7.82
2022-10-21T12:41:21.489Z,7.35
2022-10-21T12:43:54.809Z,7.88
2022-10-21T12:46:27.440Z,7.05
2022-10-21T12:48:55.095Z,7.75
2022-10-21T12:51:26.855Z,7.45
2022-10-21T12:54:03.029Z,7.82
2022-10-21T12:56:44.664Z,7.50
2022-10-21T12:59:27.521Z,7.18
2022-10-21T13:02:06.700Z,7.60
2022-10-21T13:04:33.985Z,7.85
2022-10-21T13:07:02.168Z,7.03
2022-10-21T13:09:37.274Z,7.68
2022-10-21T13:12:10.493Z,7.70
2022-10-21T13:14:40.513Z,6.88
2022-10-21T13:17:22.734Z,7.50
2022-10-21T13:19:51.242Z,7.60
2022-10-21T13:22:20.728Z,7.15
2022-10-21T13:24:48.304Z,7.13
2022-10-21T13:27:27.176Z,7.47
2022-10-21T13:29:54.943Z,7.10
2022-10-21T13:32:32.233Z,7.07
2022-10-21T13:35:02.602Z,7.70
2022-10-21T13:37:38.164Z,7.70
2022-10-21T13:40:14.077Z,7.38
2022-10-21T13:42:42.301Z,7.00
2022-10-21T13:45:15.580Z,6.90
2022-10-21T13:47:42.741Z,7.15
2022-10-21T13:50:28.284Z,7.78
2022-10-21T13:52:55.953Z,6.95
2022-10-21T13:55:25.197Z,7.68
2022-10-21T13:57:54.272Z,7.43
2022-10-21T14:00:26.075Z,6.97
2022-10-21T14:02:55.473Z,7.68
2022-10-21T14:05:39.382Z,8.07
2022-10-21T14:08:13.671Z,7.50
2022-10-21T14:10:44.789Z,7.50
2022-10-21T14:13:12.266Z,7.55
2022-10-21T14:15:44.583Z,8.00
2022-10-21T14:18:25.727Z,8.02
2022-10-21T14:20:56.140Z,6.93
2022-10-21T14:23:24.206Z,8.23
2022-10-21T14:25:56.457Z,7.72
2022-10-21T14:28:23.840Z,7.20
2022-10-21T14:30:51.107Z,8.10
2022-10-21T14:33:21.916Z,7.75
2022-10-21T14:36:04.621Z,6.60
2022-10-21T14:38:36.985Z,7.40
2022-10-21T14:41:07.024Z,7.43
2022-10-21T14:43:36.252Z,7.68
2022-10-21T14:46:06.215Z,8.13
2022-10-21T14:48:35.152Z,7.47
2022-10-21T14:51:03.752Z,6.40
2022-10-21T14:53:33.299Z,7.15
2022-10-21T14:56:01.465Z,6.32
2022-10-21T14:58:38.621Z,6.45
2022-10-21T15:01:14.541Z,6.07
2022-10-21T15:03:45.797Z,6.47
2022-10-21T15:06:14.668Z,6.40
2022-10-21T15:08:57.363Z,7.38
2022-10-21T15:11:30.868Z,6.60
2022-10-21T15:14:01.212Z,6.22
2022-10-21T15:16:30.638Z,6.60
2022-10-21T15:18:58.330Z,6.25
2022-10-21T15:21:33.272Z,6.30
2022-10-21T15:24:00.634Z,6.05
2022-10-21T15:26:33.257Z,6.38
2022-10-21T15:29:00.741Z,6.80
2022-10-21T15:31:29.650Z,7.25
2022-10-21T15:33:58.599Z,6.78
2022-10-21T15:36:25.806Z,6.93
2022-10-21T15:38:54.692Z,5.32
2022-10-21T15:41:25.917Z,6.15
2022-10-21T15:44:03.125Z,6.22
2022-10-21T15:46:32.493Z,5.95
2022-10-21T15:49:00.828Z,5.72
2022-10-21T15:51:27.978Z,5.22
2022-10-21T15:53:55.137Z,5.15
2022-10-21T15:56:22.329Z,5.40
2022-10-21T15:58:49.504Z,5.68
2022-10-21T16:01:17.816Z,4.70
2022-10-21T16:03:45.642Z,4.60
2022-10-21T16:06:16.792Z,5.40
2022-10-21T16:08:44.016Z,4.60
2022-10-21T16:11:18.896Z,5.05
2022-10-21T16:13:52.928Z,4.78
2022-10-21T16:16:21.212Z,4.75
2022-10-21T16:18:48.824Z,4.65
2022-10-21T16:21:16.458Z,5.00
2022-10-21T16:23:43.640Z,4.55
2022-10-21T16:26:20.649Z,5.43
2022-10-21T16:28:48.012Z,5.38
2022-10-21T16:31:15.934Z,5.05
2022-10-21T16:33:43.168Z,5.32
2022-10-21T16:36:17.342Z,5.65
2022-10-21T16:38:45.567Z,5.75
2022-10-21T16:41:14.301Z,5.60
2022-10-21T16:43:41.571Z,5.25
2022-10-21T16:46:27.701Z,5.97
2022-10-21T16:48:55.001Z,5.57
2022-10-21T16:51:23.292Z,5.47
2022-10-21T16:53:50.493Z,6.32
2022-10-21T16:56:17.743Z,6.57
2022-10-21T16:58:45.374Z,7.10
2022-10-21T17:01:19.349Z,6.40
2022-10-21T17:03:46.829Z,6.93
2022-10-21T17:06:22.397Z,7.68
2022-10-21T17:08:50.723Z,7.32
2022-10-21T17:11:25.473Z,7.32
2022-10-21T17:13:52.694Z,7.28
2022-10-21T17:16:20.367Z,7.72
2022-10-21T17:18:48.314Z,7.60
2022-10-21T17:21:25.892Z,9.20
2022-10-21T17:23:53.560Z,7.85
2022-10-21T17:26:21.212Z,7.80
2022-10-21T17:28:48.397Z,8.30
2022-10-21T17:31:19.369Z,7.93
2022-10-21T17:33:47.213Z,8.27
2022-10-21T17:36:14.856Z,8.30
2022-10-21T17:38:42.033Z,8.30
2022-10-21T17:41:10.026Z,8.98
2022-10-21T17:43:37.204Z,9.30
2022-10-21T17:46:04.468Z,8.55
2022-10-21T17:48:31.790Z,9.52
2022-10-21T17:51:00.145Z,10.00
2022-10-21T17:53:27.707Z,9.30
2022-10-21T17:56:01.793Z,10.45
2022-10-21T17:58:29.478Z,9.52
2022-10-21T18:00:57.285Z,10.43
2022-10-21T18:03:25.068Z,10.15
2022-10-21T18:05:52.376Z,10.75
2022-10-21T18:08:19.694Z,11.70
2022-10-21T18:10:59.169Z,11.77
2022-10-21T18:13:27.538Z,13.45
2022-10-21T18:15:55.209Z,13.00
2022-10-21T18:18:23.452Z,13.00
2022-10-21T18:20:50.593Z,12.48
2022-10-21T18:23:17.752Z,14.20
2022-10-21T18:25:44.906Z,13.85
2022-10-21T18:28:12.088Z,13.18
2022-10-21T18:30:43.455Z,13.43
2022-10-21T18:33:10.985Z,14.05
2022-10-21T18:35:38.567Z,14.43
2022-10-21T18:38:05.700Z,13.25
2022-10-21T18:40:33.502Z,13.82
2022-10-21T18:43:00.657Z,12.77
2022-10-21T18:45:27.911Z,13.65
2022-10-21T18:47:55.702Z,13.60
2022-10-21T18:50:23.027Z,13.40
2022-10-21T18:52:50.281Z,13.85
2022-10-21T18:55:17.525Z,12.98
2022-10-21T18:57:44.692Z,13.30
2022-10-21T19:00:12.162Z,13.95
2022-10-21T19:02:39.295Z,14.77
2022-10-21T19:05:06.934Z,15.32
2022-10-21T19:07:34.068Z,14.52
2022-10-21T19:10:01.205Z,15.10
2022-10-21T19:12:28.418Z,13.27
2022-10-21T19:14:55.620Z,14.80
2022-10-21T19:17:23.508Z,15.35
2022-10-21T19:19:50.831Z,15.93
2022-10-21T19:22:18.408Z,14.93
2022-10-21T19:24:45.642Z,16.05
2022-10-21T19:27:13.291Z,14.68
2022-10-21T19:29:40.520Z,15.88
2022-10-21T19:32:07.691Z,14.30
2022-10-21T19:34:34.872Z,16.38
2022-10-21T19:37:02.045Z,17.02
2022-10-21T19:39:29.205Z,17.20
2022-10-21T19:41:56.461Z,15.70
2022-10-21T19:44:23.693Z,17.25
2022-10-21T19:46:50.977Z,18.02
2022-10-21T19:49:18.128Z,16.40
2022-10-21T19:51:45.326Z,16.70
2022-10-21T19:54:13.195Z,17.10
2022-10-21T19:56:40.445Z,17.95
2022-10-21T19:59:08.255Z,17.60
2022-10-21T20:01:35.583Z,17.30
2022-10-21T20:04:03.219Z,16.73
2022-10-21T20:06:31.493Z,17.33
2022-10-21T20:09:00.032Z,16.83
2022-10-21T20:11:27.809Z,15.55
2022-10-21T20:13:55.318Z,16.23
2022-10-21T20:16:23.718Z,16.58
2022-10-21T20:18:51.164Z,16.55
2022-10-21T20:21:18.868Z,15.88
2022-10-21T20:23:46.032Z,15.98
2022-10-21T20:26:13.168Z,16.08
2022-10-21T20:28:40.356Z,16.35
2022-10-21T20:31:11.160Z,15.45
2022-10-21T20:33:40.205Z,15.48
2022-10-21T20:36:09.904Z,13.95
2022-10-21T20:38:37.141Z,17.73
2022-10-21T20:41:09.591Z,17.23
2022-10-21T20:43:38.020Z,17.27
2022-10-21T20:46:06.225Z,16.67
2022-10-21T20:48:33.701Z,17.02
2022-10-21T20:51:05.117Z,15.60
2022-10-21T20:53:32.305Z,16.20
2022-10-21T20:55:59.981Z,16.33
2022-10-21T20:58:27.342Z,16.30
2022-10-21T21:00:54.480Z,15.52
2022-10-21T21:03:22.948Z,14.55
2022-10-21T21:05:50.127Z,15.40
2022-10-21T21:08:17.646Z,16.65
2022-10-21T21:10:44.789Z,16.75
2022-10-21T21:13:11.961Z,15.45
2022-10-21T21:15:39.109Z,15.73
2022-10-21T21:18:11.457Z,14.88
2022-10-21T21:20:38.649Z,14.32
2022-10-21T21:23:05.798Z,13.63
2022-10-21T21:25:32.931Z,15.48
2022-10-21T21:28:00.135Z,15.65
2022-10-21T21:30:27.289Z,14.27
2022-10-21T21:32:54.422Z,15.32
2022-10-21T21:35:21.886Z,16.17
2022-10-21T21:37:49.148Z,14.63
2022-10-21T21:40:16.292Z,14.88
2022-10-21T21:42:43.801Z,16.83
2022-10-21T21:45:12.234Z,15.40
2022-10-21T21:47:39.389Z,15.73
2022-10-21T21:50:06.807Z,16.77
2022-10-21T21:52:34.013Z,15.38
2022-10-21T21:55:01.277Z,16.48
2022-10-21T21:57:28.847Z,15.88
2022-10-21T21:59:56.129Z,19.13
2022-10-21T22:02:23.281Z,17.92
2022-10-21T22:04:50.641Z,18.45
2022-10-21T22:07:17.893Z,18.85
2022-10-21T22:09:45.037Z,18.15
2022-10-21T22:12:14.707Z,18.33
2022-10-21T22:14:42.554Z,20.27
2022-10-21T22:17:09.918Z,18.35
2022-10-21T22:19:37.217Z,19.42
2022-10-21T22:22:04.917Z,19.88
2022-10-21T22:24:35.826Z,19.73
2022-10-21T22:27:02.983Z,20.65
2022-10-21T22:29:30.157Z,20.80
2022-10-21T22:31:57.377Z,21.17
2022-10-21T22:34:24.519Z,20.70
2022-10-21T22:36:51.668Z,22.80
2022-10-21T22:39:18.825Z,21.33
2022-10-21T22:41:45.968Z,20.95
2022-10-21T22:44:13.428Z,21.33
2022-10-21T22:46:40.597Z,19.80
2022-10-21T22:49:08.014Z,20.73
2022-10-21T22:51:35.557Z,19.40
2022-10-21T22:54:02.872Z,18.83
2022-10-21T22:56:30.251Z,18.38
2022-10-21T22:58:57.596Z,18.48
2022-10-21T23:01:28.968Z,17.50
2022-10-21T23:03:57.340Z,18.25
2022-10-21T23:06:24.948Z,17.40
2022-10-21T23:08:52.182Z,16.73
2022-10-21T23:11:19.365Z,16.98
2022-10-21T23:13:56.423Z,17.95
2022-10-21T23:16:30.109Z,17.65
2022-10-21T23:18:57.336Z,19.05
2022-10-21T23:21:24.541Z,16.65
2022-10-21T23:23:52.435Z,19.90
2022-10-21T23:26:19.607Z,18.23
2022-10-21T23:28:46.745Z,17.80
2022-10-21T23:31:14.164Z,16.48
2022-10-21T23:33:41.340Z,19.15
2022-10-21T23:36:08.594Z,18.33
2022-10-21T23:38:35.746Z,19.27
2022-10-21T23:41:02.945Z,21.25
2022-10-21T23:43:30.165Z,20.27
2022-10-21T23:45:57.284Z,19.75
2022-10-21T23:48:24.413Z,20.58
2022-10-21T23:50:51.573Z,19.25
2022-10-21T23:53:18.761Z,19.48
2022-10-21T23:55:45.939Z,19.67
2022-10-21T23:58:13.426Z,19.33
